createdAt,value
2017-12-13T00:02:22.373Z,2.60
2017-12-13T00:04:49.846Z,2.50
2017-12-13T00:07:18.140Z,2.50
2017-12-13T00:09:45.648Z,2.50
2017-12-13T00:12:13.193Z,2.60
2017-12-13T00:14:41.449Z,2.50
2017-12-13T00:17:08.901Z,2.50
2017-12-13T00:19:37.148Z,2.50
2017-12-13T00:22:04.696Z,2.50
2017-12-13T00:24:32.961Z,2.60
2017-12-13T00:27:00.424Z,2.60
2017-12-13T00:29:27.936Z,2.60
2017-12-13T00:31:55.479Z,2.50
2017-12-13T00:34:22.942Z,2.50
2017-12-13T00:36:51.279Z,2.40
2017-12-13T00:39:18.735Z,2.40
2017-12-13T00:41:46.986Z,2.30
2017-12-13T00:44:14.582Z,2.30
2017-12-13T00:46:42.078Z,2.20
2017-12-13T00:49:10.320Z,2.10
2017-12-13T00:51:37.818Z,2.10
2017-12-13T00:54:06.036Z,2.00
2017-12-13T00:56:33.500Z,2.10
2017-12-13T00:59:01.736Z,2.00
2017-12-13T01:01:29.288Z,2.00
2017-12-13T01:03:57.503Z,1.90
2017-12-13T01:06:25.087Z,1.90
2017-12-13T01:08:52.621Z,1.90
2017-12-13T01:11:20.173Z,1.90
2017-12-13T01:13:47.649Z,1.80
2017-12-13T01:16:15.253Z,1.80
2017-12-13T01:18:42.727Z,1.80
2017-12-13T01:21:10.249Z,1.80
2017-12-13T01:23:37.720Z,1.80
2017-12-13T01:26:05.173Z,1.80
2017-12-13T01:28:32.675Z,1.80
2017-12-13T01:31:00.165Z,1.70
2017-12-13T01:33:27.655Z,1.80
2017-12-13T01:36:02.156Z,1.70
2017-12-13T01:38:29.620Z,1.80
2017-12-13T01:40:57.081Z,1.80
2017-12-13T01:43:24.560Z,1.80
2017-12-13T01:45:52.020Z,1.80
2017-12-13T01:48:19.564Z,1.80
2017-12-13T01:50:47.028Z,1.80
2017-12-13T01:53:15.481Z,1.80
2017-12-13T01:55:43.696Z,1.80
2017-12-13T01:58:11.176Z,1.70
2017-12-13T02:00:38.735Z,1.70
2017-12-13T02:03:07.000Z,1.70
2017-12-13T02:05:35.228Z,1.70
2017-12-13T02:08:02.705Z,1.70
2017-12-13T02:10:30.162Z,1.70
2017-12-13T02:12:57.681Z,1.70
2017-12-13T02:15:25.275Z,1.60
2017-12-13T02:17:52.724Z,1.70
2017-12-13T02:20:20.181Z,1.70
2017-12-13T02:22:47.649Z,1.60
2017-12-13T02:25:15.922Z,1.70
2017-12-13T02:27:43.336Z,1.70
2017-12-13T02:30:10.829Z,1.60
2017-12-13T02:32:38.372Z,1.70
2017-12-13T02:35:06.637Z,1.60
2017-12-13T02:37:34.094Z,1.60
2017-12-13T02:40:14.260Z,1.60
2017-12-13T02:42:41.728Z,1.60
2017-12-13T02:45:09.296Z,1.50
2017-12-13T02:47:36.843Z,1.60
2017-12-13T02:50:04.301Z,1.50
2017-12-13T02:52:32.540Z,1.50
2017-12-13T02:55:00.036Z,1.50
2017-12-13T02:57:27.491Z,1.50
2017-12-13T02:59:54.954Z,1.50
2017-12-13T03:02:22.412Z,1.50
2017-12-13T03:04:50.668Z,1.50
2017-12-13T03:07:18.127Z,1.50
2017-12-13T03:09:46.349Z,1.50
2017-12-13T03:12:13.822Z,1.50
2017-12-13T03:14:42.178Z,1.60
2017-12-13T03:17:09.719Z,1.50
2017-12-13T03:19:37.179Z,1.60
2017-12-13T03:22:04.706Z,1.60
2017-12-13T03:24:32.244Z,1.70
2017-12-13T03:27:01.208Z,1.70
2017-12-13T03:29:28.684Z,1.70
2017-12-13T03:31:56.906Z,1.70
2017-12-13T03:34:24.383Z,1.70
2017-12-13T03:36:51.852Z,1.70
2017-12-13T03:39:19.316Z,1.70
2017-12-13T03:41:46.813Z,1.70
2017-12-13T03:44:15.040Z,1.70
2017-12-13T03:46:42.513Z,1.70
2017-12-13T03:49:09.991Z,1.70
2017-12-13T03:51:37.501Z,1.70
2017-12-13T03:54:05.047Z,1.70
2017-12-13T03:56:33.296Z,1.70
2017-12-13T03:59:00.757Z,1.70
2017-12-13T04:01:29.001Z,1.70
2017-12-13T04:03:57.232Z,1.60
2017-12-13T04:06:24.696Z,1.60
2017-12-13T04:08:52.184Z,1.60
2017-12-13T04:11:19.637Z,1.60
2017-12-13T04:13:47.092Z,1.60
2017-12-13T04:16:15.342Z,1.70
2017-12-13T04:18:42.793Z,1.60
2017-12-13T04:21:11.060Z,1.70
2017-12-13T04:23:39.308Z,1.70
2017-12-13T04:26:07.528Z,1.80
2017-12-13T04:28:34.980Z,1.70
2017-12-13T04:31:02.547Z,1.70
2017-12-13T04:33:30.091Z,1.70
2017-12-13T04:35:57.636Z,1.70
2017-12-13T04:38:25.088Z,1.70
2017-12-13T04:40:53.342Z,1.80
2017-12-13T04:43:20.880Z,1.70
2017-12-13T04:45:48.348Z,1.80
2017-12-13T04:48:15.860Z,1.90
2017-12-13T04:50:44.131Z,2.00
2017-12-13T04:53:12.384Z,2.10
2017-12-13T04:55:39.844Z,2.10
2017-12-13T04:58:07.342Z,2.10
2017-12-13T05:00:34.808Z,2.10
2017-12-13T05:03:02.324Z,2.10
2017-12-13T05:05:29.872Z,2.00
2017-12-13T05:07:57.332Z,2.00
2017-12-13T05:10:25.551Z,1.90
2017-12-13T05:12:52.996Z,1.80
2017-12-13T05:15:20.478Z,1.80
2017-12-13T05:17:48.692Z,1.80
2017-12-13T05:20:16.144Z,1.70
2017-12-13T05:22:43.608Z,1.70
2017-12-13T05:25:11.833Z,1.70
2017-12-13T05:27:39.292Z,1.70
2017-12-13T05:30:07.552Z,1.60
2017-12-13T05:32:35.003Z,1.60
2017-12-13T05:35:03.254Z,1.60
2017-12-13T05:37:30.717Z,1.60
2017-12-13T05:39:58.245Z,1.60
2017-12-13T05:42:25.887Z,1.50
2017-12-13T05:44:53.438Z,1.60
2017-12-13T05:47:20.888Z,1.50
2017-12-13T05:49:49.228Z,1.60
2017-12-13T05:52:16.680Z,1.60
2017-12-13T05:54:44.895Z,1.60
2017-12-13T05:57:12.370Z,1.60
2017-12-13T05:59:39.908Z,1.60
2017-12-13T06:02:07.450Z,1.70
2017-12-13T06:04:34.992Z,1.70
2017-12-13T06:07:02.439Z,1.70
2017-12-13T06:09:30.675Z,1.80
2017-12-13T06:11:58.128Z,1.70
2017-12-13T06:14:25.687Z,1.80
2017-12-13T06:16:53.139Z,1.80
2017-12-13T06:19:20.588Z,1.80
2017-12-13T06:21:48.043Z,1.80
2017-12-13T06:24:15.525Z,1.90
2017-12-13T06:26:44.080Z,1.90
2017-12-13T06:29:11.530Z,1.90
2017-12-13T06:31:38.976Z,1.90
2017-12-13T06:34:07.232Z,1.90
2017-12-13T06:36:34.684Z,1.90
2017-12-13T06:39:02.896Z,2.00
2017-12-13T06:41:30.359Z,2.00
2017-12-13T06:43:57.813Z,2.10
2017-12-13T06:46:25.288Z,2.10
2017-12-13T06:48:52.795Z,2.10
2017-12-13T06:51:20.249Z,2.10
2017-12-13T06:53:48.473Z,2.20
2017-12-13T06:56:15.941Z,2.20
2017-12-13T06:58:43.480Z,2.20
2017-12-13T07:01:11.028Z,2.30
2017-12-13T07:03:38.569Z,2.30
2017-12-13T07:06:06.088Z,2.40
2017-12-13T07:08:33.540Z,2.50
2017-12-13T07:11:00.991Z,2.50
2017-12-13T07:13:28.444Z,2.60
2017-12-13T07:15:55.980Z,2.60
2017-12-13T07:18:23.442Z,2.60
2017-12-13T07:20:50.908Z,2.70
2017-12-13T07:23:18.364Z,2.80
2017-12-13T07:25:46.609Z,2.80
2017-12-13T07:28:14.072Z,2.80
2017-12-13T07:30:42.310Z,2.90
2017-12-13T07:33:09.773Z,2.90
2017-12-13T07:35:37.984Z,3.00
2017-12-13T07:38:05.428Z,2.90
2017-12-13T07:40:32.884Z,3.00
2017-12-13T07:43:00.490Z,3.00
2017-12-13T07:45:28.080Z,3.10
2017-12-13T07:47:55.628Z,3.10
2017-12-13T07:50:23.084Z,3.20
2017-12-13T07:52:50.612Z,3.20
2017-12-13T07:55:18.157Z,3.20
2017-12-13T07:57:45.614Z,3.30
2017-12-13T08:00:13.856Z,3.30
2017-12-13T08:02:41.304Z,3.30
2017-12-13T08:05:09.545Z,3.30
2017-12-13T08:07:36.998Z,3.30
2017-12-13T08:10:04.587Z,3.40
2017-12-13T08:12:32.775Z,3.40
2017-12-13T08:15:00.251Z,3.40
2017-12-13T08:17:27.708Z,3.50
2017-12-13T08:19:55.159Z,3.60
2017-12-13T08:22:22.620Z,3.60
2017-12-13T08:24:50.064Z,3.70
2017-12-13T08:27:17.520Z,3.70
2017-12-13T08:29:45.731Z,3.80
2017-12-13T08:32:13.215Z,3.80
2017-12-13T08:34:41.508Z,3.80
2017-12-13T08:37:08.968Z,3.80
2017-12-13T08:39:36.459Z,3.80
2017-12-13T08:42:03.916Z,3.90
2017-12-13T08:44:32.135Z,3.90
2017-12-13T08:46:59.588Z,3.90
2017-12-13T08:49:27.056Z,3.90
2017-12-13T08:51:55.304Z,4.00
2017-12-13T08:54:22.840Z,4.00
2017-12-13T08:56:50.313Z,4.00
2017-12-13T08:59:18.524Z,4.10
2017-12-13T09:01:46.144Z,4.00
2017-12-13T09:04:13.586Z,4.10
2017-12-13T09:06:41.072Z,4.10
2017-12-13T09:09:08.617Z,4.20
2017-12-13T09:11:36.077Z,4.20
2017-12-13T09:14:04.294Z,4.30
2017-12-13T09:16:31.760Z,4.20
2017-12-13T09:18:59.263Z,4.30
2017-12-13T09:21:26.811Z,4.30
2017-12-13T09:23:54.263Z,4.30
2017-12-13T09:26:22.497Z,4.20
2017-12-13T09:28:49.951Z,4.20
2017-12-13T09:31:17.391Z,4.20
2017-12-13T09:33:45.640Z,4.10
2017-12-13T09:36:13.100Z,4.10
2017-12-13T09:38:41.349Z,4.10
2017-12-13T09:41:08.803Z,4.10
2017-12-13T09:43:37.036Z,4.10
2017-12-13T09:46:04.480Z,4.10
2017-12-13T09:48:31.930Z,4.10
2017-12-13T09:50:59.472Z,4.20
2017-12-13T09:53:27.011Z,4.10
2017-12-13T09:55:54.466Z,4.20
2017-12-13T09:58:22.716Z,4.20
2017-12-13T10:00:50.186Z,4.20
2017-12-13T10:03:17.632Z,4.30
2017-12-13T10:05:45.077Z,4.30
2017-12-13T10:08:12.586Z,4.40
2017-12-13T10:10:40.223Z,4.40
2017-12-13T10:13:07.776Z,4.40
2017-12-13T10:15:35.317Z,4.40
2017-12-13T10:18:02.855Z,4.40
2017-12-13T10:20:30.317Z,4.40
2017-12-13T10:22:58.591Z,4.50
2017-12-13T10:25:26.825Z,4.40
2017-12-13T10:27:54.275Z,4.40
2017-12-13T10:30:22.516Z,4.40
2017-12-13T10:32:50.056Z,4.40
2017-12-13T10:35:17.500Z,4.40
2017-12-13T10:37:44.969Z,4.40
2017-12-13T10:40:13.200Z,4.30
2017-12-13T10:42:42.159Z,4.30
2017-12-13T10:45:09.608Z,4.30
2017-12-13T10:47:37.164Z,4.30
2017-12-13T10:50:04.610Z,4.30
2017-12-13T10:52:32.060Z,4.30
2017-12-13T10:55:00.341Z,4.30
2017-12-13T10:57:27.760Z,4.30
2017-12-13T10:59:56.008Z,4.20
2017-12-13T11:02:23.557Z,4.20
2017-12-13T11:04:51.813Z,4.20
2017-12-13T11:07:19.280Z,4.10
2017-12-13T11:09:46.728Z,4.10
2017-12-13T11:12:14.182Z,4.20
2017-12-13T11:14:41.676Z,4.20
2017-12-13T11:17:09.129Z,4.20
2017-12-13T11:19:36.664Z,4.20
2017-12-13T11:22:04.124Z,4.20
2017-12-13T11:24:32.365Z,4.20
2017-12-13T11:26:59.809Z,4.20
2017-12-13T11:29:27.261Z,4.20
2017-12-13T11:31:54.722Z,4.20
2017-12-13T11:34:22.969Z,4.20
2017-12-13T11:36:50.452Z,4.20
2017-12-13T11:39:17.901Z,4.20
2017-12-13T11:41:45.345Z,4.20
2017-12-13T11:44:12.816Z,4.20
2017-12-13T11:46:40.277Z,4.10
2017-12-13T11:49:08.496Z,4.20
2017-12-13T11:51:35.961Z,4.20
2017-12-13T11:54:06.248Z,4.20
2017-12-13T11:56:33.700Z,4.20
2017-12-13T11:59:01.161Z,4.20
2017-12-13T12:01:28.708Z,4.20
2017-12-13T12:03:56.252Z,4.20
2017-12-13T12:06:23.792Z,4.10
2017-12-13T12:08:51.340Z,4.10
2017-12-13T12:11:18.808Z,4.10
2017-12-13T12:13:46.325Z,4.10
2017-12-13T12:16:14.540Z,4.10
2017-12-13T12:18:42.009Z,4.00
2017-12-13T12:21:09.462Z,4.10
2017-12-13T12:23:37.015Z,4.10
2017-12-13T12:26:04.552Z,4.10
2017-12-13T12:28:32.054Z,4.10
2017-12-13T12:30:59.596Z,4.10
2017-12-13T12:33:27.815Z,4.10
2017-12-13T12:35:55.296Z,4.10
2017-12-13T12:38:22.752Z,4.10
2017-12-13T12:40:50.984Z,4.10
2017-12-13T12:43:18.429Z,4.10
2017-12-13T12:45:45.980Z,4.10
2017-12-13T12:48:13.436Z,4.10
2017-12-13T12:50:41.676Z,4.00
2017-12-13T12:53:09.227Z,4.00
2017-12-13T12:55:38.209Z,4.00
2017-12-13T12:58:05.681Z,4.00
2017-12-13T13:00:33.192Z,4.00
2017-12-13T13:03:00.664Z,3.90
2017-12-13T13:05:28.276Z,4.00
2017-12-13T13:07:56.538Z,4.00
2017-12-13T13:10:24.085Z,4.00
2017-12-13T13:12:51.621Z,3.90
2017-12-13T13:15:19.166Z,3.90
2017-12-13T13:17:46.618Z,3.90
2017-12-13T13:20:14.870Z,3.80
2017-12-13T13:22:42.329Z,3.80
2017-12-13T13:25:10.568Z,3.70
2017-12-13T13:27:38.016Z,3.70
2017-12-13T13:30:05.468Z,3.70
2017-12-13T13:32:32.936Z,3.70
2017-12-13T13:35:00.384Z,3.70
2017-12-13T13:37:27.869Z,3.60
2017-12-13T13:39:56.102Z,3.70
2017-12-13T13:42:23.556Z,3.60
2017-12-13T13:44:51.012Z,3.70
2017-12-13T13:47:19.234Z,3.70
2017-12-13T13:49:46.679Z,3.60
2017-12-13T13:52:14.153Z,3.60
2017-12-13T13:54:42.506Z,3.70
2017-12-13T13:57:09.948Z,3.70
2017-12-13T13:59:37.488Z,3.70
2017-12-13T14:02:04.936Z,3.70
2017-12-13T14:04:33.161Z,3.80
2017-12-13T14:07:00.629Z,3.70
2017-12-13T14:09:28.851Z,3.80
2017-12-13T14:11:56.300Z,3.80
2017-12-13T14:14:24.612Z,3.80
2017-12-13T14:16:52.845Z,3.90
2017-12-13T14:19:20.394Z,3.90
2017-12-13T14:21:47.931Z,3.90
2017-12-13T14:24:15.484Z,3.90
2017-12-13T14:26:43.704Z,4.00
2017-12-13T14:29:11.194Z,3.90
2017-12-13T14:31:38.732Z,4.00
2017-12-13T14:34:06.282Z,4.00
2017-12-13T14:36:33.748Z,4.00
2017-12-13T14:39:01.276Z,4.00
2017-12-13T14:41:29.488Z,3.90
2017-12-13T14:43:56.961Z,3.90
2017-12-13T14:46:24.504Z,3.90
2017-12-13T14:48:51.963Z,3.90
2017-12-13T14:51:20.177Z,3.80
2017-12-13T14:53:47.647Z,3.80
2017-12-13T14:56:15.193Z,3.70
2017-12-13T14:58:42.648Z,3.80
2017-12-13T15:01:10.901Z,3.80
2017-12-13T15:03:39.108Z,3.80
2017-12-13T15:06:06.558Z,3.80
2017-12-13T15:08:34.031Z,3.80
2017-12-13T15:11:01.581Z,3.80
2017-12-13T15:13:29.028Z,3.80
2017-12-13T15:15:57.283Z,3.90
2017-12-13T15:18:24.833Z,3.90
2017-12-13T15:20:52.280Z,4.00
2017-12-13T15:23:19.732Z,4.00
2017-12-13T15:25:47.215Z,4.00
2017-12-13T15:28:14.700Z,4.00
2017-12-13T15:30:42.244Z,4.10
2017-12-13T15:33:09.696Z,4.00
2017-12-13T15:35:37.929Z,4.00
2017-12-13T15:38:05.489Z,4.00
2017-12-13T15:40:33.752Z,4.10
2017-12-13T15:43:01.972Z,4.10
2017-12-13T15:45:29.472Z,4.10
2017-12-13T15:47:57.707Z,4.20
2017-12-13T15:50:25.248Z,4.10
2017-12-13T15:52:53.534Z,4.10
2017-12-13T15:55:21.753Z,4.20
2017-12-13T15:57:49.704Z,4.20
2017-12-13T16:00:17.152Z,4.20
2017-12-13T16:02:44.712Z,4.20
2017-12-13T16:05:12.253Z,4.20
2017-12-13T16:07:40.516Z,4.20
2017-12-13T16:10:07.972Z,4.20
2017-12-13T16:12:36.200Z,4.20
2017-12-13T16:15:03.762Z,4.20
2017-12-13T16:17:31.224Z,4.20
2017-12-13T16:19:59.474Z,4.30
2017-12-13T16:22:27.136Z,4.20
2017-12-13T16:24:55.380Z,4.20
2017-12-13T16:27:22.840Z,4.30
2017-12-13T16:29:51.085Z,4.30
2017-12-13T16:32:18.625Z,4.30
2017-12-13T16:34:46.172Z,4.30
2017-12-13T16:37:13.628Z,4.30
2017-12-13T16:39:41.881Z,4.40
2017-12-13T16:42:10.095Z,4.40
2017-12-13T16:44:37.552Z,4.40
2017-12-13T16:47:05.018Z,4.40
2017-12-13T16:49:32.482Z,4.40
2017-12-13T16:52:00.720Z,4.50
2017-12-13T16:54:28.189Z,4.40
2017-12-13T16:56:56.076Z,4.40
2017-12-13T16:59:23.569Z,4.40
2017-12-13T17:01:51.996Z,4.40
2017-12-13T17:04:19.465Z,4.40
2017-12-13T17:06:47.720Z,4.50
2017-12-13T17:09:15.269Z,4.50
2017-12-13T17:11:43.532Z,4.40
2017-12-13T17:14:11.753Z,4.40
2017-12-13T17:16:39.212Z,4.40
2017-12-13T17:19:06.681Z,4.40
2017-12-13T17:21:34.156Z,4.40
2017-12-13T17:24:02.386Z,4.40
2017-12-13T17:26:29.857Z,4.40
2017-12-13T17:28:57.412Z,4.40
2017-12-13T17:31:24.886Z,4.40
2017-12-13T17:33:52.361Z,4.30
2017-12-13T17:36:19.932Z,4.40
2017-12-13T17:38:47.394Z,4.30
2017-12-13T17:41:15.637Z,4.40
2017-12-13T17:43:43.899Z,4.40
2017-12-13T17:46:12.117Z,4.40
2017-12-13T17:48:39.581Z,4.40
2017-12-13T17:51:07.142Z,4.40
2017-12-13T17:53:34.698Z,4.40
2017-12-13T17:56:02.241Z,4.30
2017-12-13T17:58:31.629Z,4.40
2017-12-13T18:00:59.864Z,4.30
2017-12-13T18:03:27.325Z,4.30
2017-12-13T18:05:56.589Z,4.30
2017-12-13T18:08:24.156Z,4.30
2017-12-13T18:10:52.381Z,4.40
2017-12-13T18:13:19.880Z,4.40
2017-12-13T18:15:48.112Z,4.40
2017-12-13T18:18:15.567Z,4.40
2017-12-13T18:20:43.789Z,4.30
2017-12-13T18:23:11.260Z,4.30
2017-12-13T18:25:38.712Z,4.30
2017-12-13T18:28:06.277Z,4.30
2017-12-13T18:30:33.819Z,4.30
2017-12-13T18:33:01.409Z,4.30
2017-12-13T18:35:28.910Z,4.30
2017-12-13T18:37:57.132Z,4.30
2017-12-13T18:40:24.606Z,4.30
2017-12-13T18:42:52.109Z,4.30
2017-12-13T18:45:20.332Z,4.30
2017-12-13T18:47:47.798Z,4.30
2017-12-13T18:50:15.349Z,4.30
2017-12-13T18:52:43.875Z,4.30
2017-12-13T18:55:11.352Z,4.30
2017-12-13T18:57:45.560Z,4.30
2017-12-13T19:00:28.874Z,4.30
2017-12-13T19:02:57.178Z,4.30
2017-12-13T19:05:24.673Z,4.30
2017-12-13T19:07:52.890Z,4.30
2017-12-13T19:10:21.980Z,4.30
2017-12-13T19:12:49.975Z,4.40
2017-12-13T19:15:18.211Z,4.40
2017-12-13T19:17:45.661Z,4.40
2017-12-13T19:20:13.116Z,4.40
2017-12-13T19:22:40.581Z,4.40
2017-12-13T19:25:09.238Z,4.50
2017-12-13T19:27:36.701Z,4.50
2017-12-13T19:30:04.153Z,4.50
2017-12-13T19:32:32.414Z,4.50
2017-12-13T19:35:00.673Z,4.50
2017-12-13T19:37:28.888Z,4.60
2017-12-13T19:42:54.945Z,4.50
2017-12-13T19:45:22.411Z,4.50
2017-12-13T19:47:50.421Z,4.50
2017-12-13T19:50:18.580Z,4.50
2017-12-13T19:52:46.811Z,4.60
2017-12-13T19:55:14.268Z,4.50
2017-12-13T19:57:41.720Z,4.60
2017-12-13T20:00:09.974Z,4.60
2017-12-13T20:02:37.523Z,4.60
2017-12-13T20:05:06.550Z,4.60
2017-12-13T20:07:34.040Z,4.70
2017-12-13T20:10:01.514Z,4.70
2017-12-13T20:12:29.036Z,4.70
2017-12-13T20:15:04.865Z,4.70
2017-12-13T20:20:25.245Z,4.70
2017-12-13T20:22:53.512Z,4.70
2017-12-13T20:25:21.761Z,4.70
2017-12-13T20:27:49.969Z,4.70
2017-12-13T20:30:17.416Z,4.70
2017-12-13T20:32:45.722Z,4.70
2017-12-13T20:35:13.185Z,4.70
2017-12-13T20:37:41.419Z,4.70
2017-12-13T20:40:08.934Z,4.70
2017-12-13T20:42:36.476Z,4.70
2017-12-13T20:47:55.111Z,4.70
2017-12-13T20:50:22.569Z,4.80
2017-12-13T20:52:50.792Z,4.80
2017-12-13T20:55:18.270Z,4.80
2017-12-13T20:57:46.529Z,4.80
2017-12-13T21:00:14.793Z,4.90
2017-12-13T21:02:43.043Z,4.90
2017-12-13T21:05:10.491Z,4.90
2017-12-13T21:07:38.974Z,4.90
2017-12-13T21:10:06.434Z,4.90
2017-12-13T21:12:33.932Z,4.90
2017-12-13T21:15:01.632Z,4.90
2017-12-13T21:17:29.132Z,4.90
2017-12-13T21:19:57.392Z,4.90
2017-12-13T21:22:25.632Z,4.90
2017-12-13T21:24:53.190Z,4.90
2017-12-13T21:27:20.785Z,4.90
2017-12-13T21:29:48.279Z,4.90
2017-12-13T21:32:15.827Z,4.90
2017-12-13T21:34:43.280Z,4.90
2017-12-13T21:37:11.511Z,4.90
2017-12-13T21:39:38.952Z,4.90
2017-12-13T21:42:06.402Z,4.90
2017-12-13T21:44:33.953Z,4.90
2017-12-13T21:47:02.257Z,5.00
2017-12-13T21:49:29.733Z,5.00
2017-12-13T21:51:57.242Z,5.10
2017-12-13T21:54:24.686Z,5.10
2017-12-13T21:56:52.146Z,5.10
2017-12-13T21:59:19.612Z,5.10
2017-12-13T22:01:47.068Z,5.20
2017-12-13T22:04:15.280Z,5.20
2017-12-13T22:06:42.740Z,5.20
2017-12-13T22:09:10.192Z,5.20
2017-12-13T22:11:37.636Z,5.20
2017-12-13T22:14:05.092Z,5.20
2017-12-13T22:16:33.312Z,5.20
2017-12-13T22:19:00.768Z,5.20
2017-12-13T22:21:28.323Z,5.20
2017-12-13T22:23:55.872Z,5.30
2017-12-13T22:26:23.325Z,5.30
2017-12-13T22:28:51.573Z,5.30
2017-12-13T22:31:19.137Z,5.30
2017-12-13T22:33:47.371Z,5.30
2017-12-13T22:36:14.923Z,5.30
2017-12-13T22:38:42.363Z,5.40
2017-12-13T22:41:09.818Z,5.40
2017-12-13T22:43:38.031Z,5.40
2017-12-13T22:46:05.501Z,5.40
2017-12-13T22:48:32.973Z,5.50
2017-12-13T22:51:00.425Z,5.50
2017-12-13T22:53:27.878Z,5.50
2017-12-13T22:55:55.339Z,5.50
2017-12-13T22:58:22.914Z,5.50
2017-12-13T23:00:51.154Z,5.60
2017-12-13T23:03:18.601Z,5.60
2017-12-13T23:05:46.055Z,5.60
2017-12-13T23:08:13.559Z,5.60
2017-12-13T23:10:41.044Z,5.60
2017-12-13T23:13:09.297Z,5.60
2017-12-13T23:15:36.841Z,5.60
2017-12-13T23:18:04.294Z,5.60
2017-12-13T23:20:32.524Z,5.60
2017-12-13T23:22:59.992Z,5.60
2017-12-13T23:25:28.212Z,5.70
2017-12-13T23:27:55.664Z,5.60
2017-12-13T23:30:23.132Z,5.70
2017-12-13T23:32:50.620Z,5.70
2017-12-13T23:35:18.113Z,5.70
2017-12-13T23:37:45.565Z,5.70
2017-12-13T23:40:13.797Z,5.80
2017-12-13T23:42:41.252Z,5.70
2017-12-13T23:45:08.798Z,5.70
2017-12-13T23:47:36.268Z,5.70
2017-12-13T23:50:03.728Z,5.70
2017-12-13T23:52:31.225Z,5.60
2017-12-13T23:54:58.684Z,5.70
2017-12-13T23:57:26.959Z,5.70
2017-12-13T23:59:54.467Z,5.70
